KLGU/LGU METAR and TAF weather

Enter ICAO airport designator
Station Type Date Time Source
KLGU METAR 2018/12/19 03:51 UTC NOAA

KLGU 190351Z AUTO 04003KT 7SM FEW060 OVC085 02/M01 A3013 RMK AO2 SLP217 T00221006 $


Station Type Date Time Source
KLGU Decoded METAR 2018/12/19 03:51 UTC NOAA

LOGAN CACHE AIRPORT, UT, United States (KLGU) 41-47N 111-51W 1355M
Dec 18, 2018 - 10:51 PM EST / 2018.12.19 0351 UTC
Wind: from the NE (040 degrees) at 3 MPH (3 KT):0
Visibility: 7 mile(s):0
Sky conditions: overcast
Temperature: 36.0 F (2.2 C)
Dew Point: 30.9 F (-0.6 C)
Relative Humidity: 81%
Pressure (altimeter): 30.13 in. Hg (1020 hPa)
ob: KLGU 190351Z AUTO 04003KT 7SM FEW060 OVC085 02/M01 A3013 RMK AO2 SLP217 T00221006
cycle: 4

Station Type Date Time Source
KLGU TAF 2018/12/18 18:45 UTC NOAA

TAF KLGU 181742Z 1818/1918 VRB05KT 5SM BR VCSH SCT030 OVC050
FM190300 VRB05KT P6SM VCSH BKN040 OVC060
FM190600 16008KT 4SM -SN BR OVC025
FM191000 27008KT 1SM -SN BR OVC008
FM191500 32007KT 4SM -SHSN BR OVC020


Example: see airport list